createdAt,value
2018-09-06T00:01:33.968Z,3.90
2018-09-06T00:04:02.460Z,3.22
2018-09-06T00:06:30.976Z,3.40
2018-09-06T00:08:59.473Z,4.40
2018-09-06T00:11:27.953Z,3.15
2018-09-06T00:13:56.463Z,3.02
2018-09-06T00:16:25.007Z,3.20
2018-09-06T00:18:53.489Z,3.55
2018-09-06T00:21:21.973Z,3.85
2018-09-06T00:23:50.625Z,3.17
2018-09-06T00:26:19.141Z,3.30
2018-09-06T00:28:47.609Z,3.10
2018-09-06T00:31:16.161Z,3.60
2018-09-06T00:33:44.612Z,3.37
2018-09-06T00:36:13.130Z,3.42
2018-09-06T00:38:41.561Z,4.70
2018-09-06T00:41:09.999Z,3.20
2018-09-06T00:43:38.395Z,3.83
2018-09-06T00:46:07.080Z,3.25
2018-09-06T00:48:35.499Z,3.20
2018-09-06T00:51:03.984Z,3.80
2018-09-06T00:53:32.399Z,3.27
2018-09-06T00:56:00.967Z,3.30
2018-09-06T00:58:29.426Z,3.20
2018-09-06T01:00:57.868Z,3.62
2018-09-06T01:03:26.418Z,3.20
2018-09-06T01:05:54.864Z,3.60
2018-09-06T01:08:23.245Z,3.08
2018-09-06T01:10:51.719Z,3.00
2018-09-06T01:13:20.148Z,4.20
2018-09-06T01:15:48.598Z,3.10
2018-09-06T01:18:17.166Z,3.15
2018-09-06T01:20:45.619Z,3.05
2018-09-06T01:23:14.035Z,3.65
2018-09-06T01:25:49.071Z,3.20
2018-09-06T01:28:19.186Z,3.00
2018-09-06T01:30:47.675Z,2.90
2018-09-06T01:33:16.108Z,3.00
2018-09-06T01:35:49.829Z,3.35
2018-09-06T01:38:18.306Z,2.90
2018-09-06T01:40:46.706Z,3.05
2018-09-06T01:43:15.154Z,3.77
2018-09-06T01:45:43.598Z,3.17
2018-09-06T01:48:12.055Z,3.70
2018-09-06T01:50:40.458Z,3.10
2018-09-06T01:53:09.115Z,3.37
2018-09-06T01:55:37.523Z,3.20
2018-09-06T01:58:05.974Z,3.40
2018-09-06T02:00:34.529Z,3.02
2018-09-06T02:03:02.976Z,3.00
2018-09-06T02:05:36.026Z,3.55
2018-09-06T02:08:05.535Z,3.30
2018-09-06T02:10:33.987Z,2.90
2018-09-06T02:13:02.435Z,3.40
2018-09-06T02:15:30.859Z,2.90
2018-09-06T02:17:59.296Z,2.90
2018-09-06T02:20:27.719Z,3.00
2018-09-06T02:22:56.156Z,3.40
2018-09-06T02:25:24.575Z,2.90
2018-09-06T02:27:52.991Z,3.30
2018-09-06T02:30:21.432Z,2.80
2018-09-06T02:32:49.858Z,2.87
2018-09-06T02:35:18.310Z,3.00
2018-09-06T02:37:46.724Z,3.00
2018-09-06T02:40:20.445Z,3.47
2018-09-06T02:42:48.854Z,3.00
2018-09-06T02:45:17.274Z,3.00
2018-09-06T02:47:51.104Z,3.10
2018-09-06T02:50:24.848Z,3.00
2018-09-06T02:52:54.031Z,3.35
2018-09-06T02:55:23.091Z,2.90
2018-09-06T02:57:51.532Z,3.10
2018-09-06T03:00:25.381Z,3.17
2018-09-06T03:02:53.823Z,3.00
2018-09-06T03:05:22.642Z,2.70
2018-09-06T03:07:51.258Z,2.83
2018-09-06T03:10:20.202Z,2.75
2018-09-06T03:12:48.678Z,2.80
2018-09-06T03:15:17.174Z,3.10
2018-09-06T03:17:45.520Z,3.37
2018-09-06T03:20:13.989Z,2.75
2018-09-06T03:22:42.394Z,2.80
2018-09-06T03:25:10.812Z,2.72
2018-09-06T03:27:39.216Z,2.80
2018-09-06T03:30:07.674Z,3.33
2018-09-06T03:32:36.152Z,2.70
2018-09-06T03:35:04.610Z,2.65
2018-09-06T03:37:33.068Z,2.92
2018-09-06T03:40:01.476Z,2.65
2018-09-06T03:42:29.891Z,2.75
2018-09-06T03:44:58.384Z,3.10
2018-09-06T03:47:26.791Z,2.70
2018-09-06T03:49:55.210Z,2.72
2018-09-06T03:52:23.609Z,3.22
2018-09-06T03:54:52.032Z,3.10
2018-09-06T03:57:20.423Z,3.00
2018-09-06T03:59:48.850Z,2.67
2018-09-06T04:02:17.237Z,3.20
2018-09-06T04:04:45.686Z,3.10
2018-09-06T04:07:14.084Z,2.90
2018-09-06T04:09:42.494Z,2.90
2018-09-06T04:12:10.904Z,2.60
2018-09-06T04:14:39.348Z,2.72
2018-09-06T04:17:07.853Z,3.35
2018-09-06T04:19:36.266Z,2.98
2018-09-06T04:22:04.727Z,2.92
2018-09-06T04:24:33.157Z,3.45
2018-09-06T04:27:01.547Z,2.75
2018-09-06T04:29:29.958Z,6.40
2018-09-06T04:31:58.346Z,2.60
2018-09-06T04:34:26.808Z,2.55
2018-09-06T04:36:55.271Z,2.70
2018-09-06T04:39:23.688Z,2.50
2018-09-06T04:41:52.099Z,2.80
2018-09-06T04:44:20.523Z,2.45
2018-09-06T04:46:50.807Z,2.67
2018-09-06T04:49:19.679Z,2.62
2018-09-06T04:51:48.974Z,2.70
2018-09-06T04:54:17.582Z,2.50
2018-09-06T04:56:45.999Z,2.60
2018-09-06T04:59:14.402Z,2.77
2018-09-06T05:01:42.877Z,4.28
2018-09-06T05:04:11.320Z,2.60
2018-09-06T05:06:40.124Z,2.83
2018-09-06T05:09:10.214Z,3.05
2018-09-06T05:11:39.391Z,2.80
2018-09-06T05:14:07.778Z,3.35
2018-09-06T05:16:36.196Z,2.60
2018-09-06T05:19:04.714Z,3.10
2018-09-06T05:21:33.128Z,3.45
2018-09-06T05:24:01.551Z,2.90
2018-09-06T05:26:30.012Z,2.60
2018-09-06T05:28:58.398Z,3.65
2018-09-06T05:31:26.800Z,2.60
2018-09-06T05:33:55.191Z,12.28
2018-09-06T05:36:23.718Z,2.90
2018-09-06T05:38:52.156Z,4.00
2018-09-06T05:41:20.602Z,2.60
2018-09-06T05:43:49.047Z,3.22
2018-09-06T05:46:17.555Z,2.90
2018-09-06T05:48:46.038Z,2.80
2018-09-06T05:51:14.490Z,2.70
2018-09-06T05:53:42.914Z,2.90
2018-09-06T05:56:11.378Z,2.90
2018-09-06T05:58:39.862Z,3.00
2018-09-06T06:01:08.380Z,3.37
2018-09-06T06:03:36.842Z,2.90
2018-09-06T06:06:05.295Z,3.22
2018-09-06T06:08:40.180Z,3.00
2018-09-06T06:11:08.711Z,5.05
2018-09-06T06:13:37.215Z,3.20
2018-09-06T06:16:05.734Z,3.10
2018-09-06T06:18:34.447Z,3.20
2018-09-06T06:21:02.893Z,2.80
2018-09-06T06:23:31.376Z,4.25
2018-09-06T06:25:59.853Z,3.00
2018-09-06T06:28:28.448Z,3.20
2018-09-06T06:30:56.892Z,2.70
2018-09-06T06:33:25.362Z,3.95
2018-09-06T06:35:53.818Z,3.60
2018-09-06T06:38:22.273Z,3.15
2018-09-06T06:40:50.710Z,2.90
2018-09-06T06:43:19.199Z,3.22
2018-09-06T06:45:47.681Z,3.20
2018-09-06T06:48:16.151Z,3.10
2018-09-06T06:50:44.570Z,3.10
2018-09-06T06:53:13.000Z,3.00
2018-09-06T06:55:41.744Z,3.00
2018-09-06T06:58:10.204Z,3.10
2018-09-06T07:00:39.594Z,5.35
2018-09-06T07:03:08.959Z,3.55
2018-09-06T07:05:37.616Z,2.98
2018-09-06T07:08:06.862Z,3.10
2018-09-06T07:10:35.302Z,3.08
2018-09-06T07:13:03.854Z,3.15
2018-09-06T07:15:32.279Z,4.15
2018-09-06T07:18:00.695Z,3.20
2018-09-06T07:20:29.086Z,4.80
2018-09-06T07:22:57.731Z,3.40
2018-09-06T07:25:26.347Z,4.45
2018-09-06T07:27:54.768Z,4.37
2018-09-06T07:30:23.196Z,3.30
2018-09-06T07:32:51.877Z,3.20
2018-09-06T07:35:20.370Z,3.55
2018-09-06T07:37:48.805Z,3.60
2018-09-06T07:40:17.264Z,3.70
2018-09-06T07:42:45.723Z,3.75
2018-09-06T07:45:14.190Z,5.15
2018-09-06T07:47:42.649Z,3.67
2018-09-06T07:50:11.234Z,4.83
2018-09-06T07:52:39.587Z,3.83
2018-09-06T07:55:08.090Z,3.30
2018-09-06T07:57:36.551Z,3.92
2018-09-06T08:00:05.274Z,4.10
2018-09-06T08:02:33.714Z,3.65
2018-09-06T08:05:02.202Z,3.60
2018-09-06T08:07:30.666Z,3.60
2018-09-06T08:09:59.136Z,4.00
2018-09-06T08:12:27.572Z,3.50
2018-09-06T08:14:56.055Z,3.57
2018-09-06T08:17:24.494Z,3.93
2018-09-06T08:19:52.990Z,3.60
2018-09-06T08:22:21.430Z,4.13
2018-09-06T08:24:50.005Z,3.90
2018-09-06T08:27:18.456Z,4.13
2018-09-06T08:29:46.910Z,3.83
2018-09-06T08:32:15.386Z,4.30
2018-09-06T08:34:43.929Z,3.90
2018-09-06T08:37:12.397Z,3.70
2018-09-06T08:39:40.824Z,4.10
2018-09-06T08:42:09.240Z,4.33
2018-09-06T08:44:37.659Z,4.37
2018-09-06T08:47:06.133Z,4.27
2018-09-06T08:49:34.582Z,4.20
2018-09-06T08:52:03.080Z,5.37
2018-09-06T08:54:31.484Z,3.97
2018-09-06T08:56:59.903Z,4.67
2018-09-06T08:59:28.347Z,3.40
2018-09-06T09:01:56.796Z,3.93
2018-09-06T09:04:25.242Z,4.33
2018-09-06T09:09:37.425Z,8.27
2018-09-06T09:12:05.903Z,4.07
2018-09-06T09:14:34.407Z,3.80
2018-09-06T09:17:02.878Z,3.80
2018-09-06T09:19:31.292Z,4.30
2018-09-06T09:21:59.841Z,4.73
2018-09-06T09:24:28.194Z,4.00
2018-09-06T09:26:56.660Z,4.10
2018-09-06T09:29:25.155Z,4.50
2018-09-06T09:31:53.626Z,4.93
2018-09-06T09:34:22.048Z,4.13
2018-09-06T09:36:50.555Z,3.70
2018-09-06T09:39:19.048Z,3.80
2018-09-06T09:41:47.544Z,7.20
2018-09-06T09:44:15.986Z,4.03
2018-09-06T09:49:12.244Z,4.27
2018-09-06T09:51:40.779Z,4.63
2018-09-06T09:54:09.330Z,3.90
2018-09-06T09:56:37.832Z,3.60
2018-09-06T09:59:06.352Z,3.47
2018-09-06T10:01:40.101Z,4.80
2018-09-06T10:04:13.747Z,3.73
2018-09-06T10:06:47.613Z,4.30
2018-09-06T10:09:21.134Z,6.30
2018-09-06T10:11:49.646Z,3.50
2018-09-06T10:14:18.195Z,4.50
2018-09-06T10:16:47.179Z,6.43
2018-09-06T10:19:16.156Z,3.60
2018-09-06T10:21:44.712Z,4.30
2018-09-06T10:24:13.216Z,3.40
2018-09-06T10:26:41.767Z,3.53
2018-09-06T10:29:10.258Z,4.60
2018-09-06T10:31:38.767Z,3.80
2018-09-06T10:34:07.219Z,7.67
2018-09-06T10:36:35.652Z,3.80
2018-09-06T10:39:04.805Z,4.53
2018-09-06T10:41:33.319Z,3.90
2018-09-06T10:44:01.728Z,5.33
2018-09-06T10:46:30.203Z,4.20
2018-09-06T10:48:58.666Z,5.40
2018-09-06T10:51:27.078Z,4.53
2018-09-06T10:53:55.520Z,3.90
2018-09-06T10:56:24.003Z,4.10
2018-09-06T10:58:52.519Z,4.40
2018-09-06T11:01:20.987Z,3.60
2018-09-06T11:03:50.723Z,4.33
2018-09-06T11:06:19.260Z,3.80
2018-09-06T11:08:47.718Z,5.70
2018-09-06T11:11:16.120Z,4.67
2018-09-06T11:13:44.558Z,3.60
2018-09-06T11:16:12.986Z,4.00
2018-09-06T11:18:41.410Z,3.77
2018-09-06T11:21:09.978Z,3.70
2018-09-06T11:23:38.311Z,4.50
2018-09-06T11:26:06.763Z,3.67
2018-09-06T11:28:35.192Z,3.83
2018-09-06T11:31:03.591Z,3.60
2018-09-06T11:33:32.018Z,4.13
2018-09-06T11:36:00.479Z,3.50
2018-09-06T11:38:28.956Z,3.57
2018-09-06T11:40:57.360Z,3.90
2018-09-06T11:43:25.842Z,4.13
2018-09-06T11:45:54.279Z,3.80
2018-09-06T11:48:22.766Z,3.70
2018-09-06T11:50:51.190Z,3.77
2018-09-06T11:53:19.614Z,4.87
2018-09-06T11:55:48.016Z,3.60
2018-09-06T11:58:16.456Z,4.87
2018-09-06T12:00:45.390Z,3.60
2018-09-06T12:03:13.887Z,5.30
2018-09-06T12:05:42.363Z,3.90
2018-09-06T12:08:10.786Z,3.70
2018-09-06T12:10:39.218Z,3.80
2018-09-06T12:13:07.621Z,4.20
2018-09-06T12:15:36.092Z,5.00
2018-09-06T12:18:04.570Z,3.70
2018-09-06T12:20:33.016Z,4.10
2018-09-06T12:23:01.439Z,4.63
2018-09-06T12:25:29.929Z,4.23
2018-09-06T12:27:58.399Z,4.00
2018-09-06T12:30:26.942Z,3.63
2018-09-06T12:32:55.354Z,4.50
2018-09-06T12:35:23.832Z,5.17
2018-09-06T12:37:52.247Z,4.10
2018-09-06T12:40:20.696Z,5.17
2018-09-06T12:42:49.087Z,3.60
2018-09-06T12:45:17.578Z,4.13
2018-09-06T12:47:46.290Z,3.73
2018-09-06T12:50:14.797Z,4.17
2018-09-06T12:52:43.227Z,4.20
2018-09-06T12:55:11.726Z,3.77
2018-09-06T12:57:40.182Z,4.30
2018-09-06T13:00:08.754Z,4.50
2018-09-06T13:02:37.202Z,3.90
2018-09-06T13:05:06.048Z,4.47
2018-09-06T13:07:34.447Z,5.50
2018-09-06T13:10:02.937Z,5.83
2018-09-06T13:12:31.357Z,4.40
2018-09-06T13:14:59.839Z,3.77
2018-09-06T13:17:28.266Z,3.87
2018-09-06T13:19:56.826Z,4.00
2018-09-06T13:22:25.275Z,4.43
2018-09-06T13:24:53.678Z,3.63
2018-09-06T13:27:22.214Z,4.47
2018-09-06T13:29:50.546Z,3.90
2018-09-06T13:32:18.955Z,3.80
2018-09-06T13:34:47.360Z,3.60
2018-09-06T13:37:15.808Z,3.50
2018-09-06T13:39:44.224Z,3.80
2018-09-06T13:42:12.630Z,3.37
2018-09-06T13:44:41.081Z,5.83
2018-09-06T13:47:09.508Z,5.20
2018-09-06T13:49:37.892Z,6.33
2018-09-06T13:52:06.498Z,3.80
2018-09-06T13:54:34.914Z,4.53
2018-09-06T13:57:03.351Z,3.97
2018-09-06T13:59:31.763Z,4.07
2018-09-06T14:02:00.206Z,3.27
2018-09-06T14:04:28.596Z,3.50
2018-09-06T14:06:57.019Z,4.70
2018-09-06T14:09:25.402Z,3.70
2018-09-06T14:11:53.826Z,3.90
2018-09-06T14:14:22.215Z,3.57
2018-09-06T14:16:50.752Z,4.00
2018-09-06T14:19:19.150Z,3.40
2018-09-06T14:21:47.570Z,5.33
2018-09-06T14:24:16.041Z,3.60
2018-09-06T14:26:44.386Z,3.43
2018-09-06T14:29:12.786Z,3.50
2018-09-06T14:31:41.200Z,3.70
2018-09-06T14:34:09.594Z,4.40
2018-09-06T14:36:38.061Z,3.90
2018-09-06T14:39:07.553Z,3.60
2018-09-06T14:41:36.137Z,3.40
2018-09-06T14:44:04.595Z,3.70
2018-09-06T14:46:32.962Z,3.77
2018-09-06T14:49:01.366Z,3.30
2018-09-06T14:51:29.796Z,3.50
2018-09-06T14:53:58.200Z,3.30
2018-09-06T14:56:26.648Z,3.50
2018-09-06T14:58:55.080Z,3.47
2018-09-06T15:01:23.562Z,4.57
2018-09-06T15:03:51.964Z,3.83
2018-09-06T15:06:20.429Z,4.00
2018-09-06T15:08:48.850Z,4.27
2018-09-06T15:11:17.254Z,4.07
2018-09-06T15:13:45.759Z,3.30
2018-09-06T15:16:14.108Z,3.67
2018-09-06T15:18:42.572Z,3.80
2018-09-06T15:21:10.992Z,4.40
2018-09-06T15:23:40.037Z,3.70
2018-09-06T15:26:08.446Z,3.73
2018-09-06T15:28:36.863Z,3.73
2018-09-06T15:31:05.338Z,3.53
2018-09-06T15:33:33.864Z,4.53
2018-09-06T15:36:02.358Z,3.70
2018-09-06T15:38:30.837Z,3.40
2018-09-06T15:40:59.307Z,4.00
2018-09-06T15:43:27.762Z,3.30
2018-09-06T15:45:56.211Z,4.77
2018-09-06T15:48:24.939Z,3.80
2018-09-06T15:50:53.407Z,3.47
2018-09-06T15:53:21.859Z,3.50
2018-09-06T15:55:50.399Z,3.70
2018-09-06T15:58:18.823Z,4.37
2018-09-06T16:00:47.259Z,3.50
2018-09-06T16:03:15.760Z,5.65
2018-09-06T16:05:44.225Z,3.08
2018-09-06T16:08:12.707Z,2.92
2018-09-06T16:10:41.154Z,2.90
2018-09-06T16:13:09.622Z,2.98
2018-09-06T16:15:38.085Z,4.15
2018-09-06T16:18:06.593Z,2.50
2018-09-06T16:20:35.063Z,2.30
2018-09-06T16:23:03.596Z,2.45
2018-09-06T16:25:32.046Z,2.45
2018-09-06T16:28:00.542Z,2.45
2018-09-06T16:30:29.015Z,2.40
2018-09-06T16:32:57.515Z,2.30
2018-09-06T16:35:25.992Z,2.30
2018-09-06T16:37:54.419Z,2.37
2018-09-06T16:40:22.826Z,2.30
2018-09-06T16:42:51.264Z,2.22
2018-09-06T16:45:19.726Z,2.20
2018-09-06T16:47:48.188Z,2.00
2018-09-06T16:50:16.574Z,1.95
2018-09-06T16:52:44.996Z,1.80
2018-09-06T16:55:13.467Z,1.90
2018-09-06T16:57:41.878Z,1.90
2018-09-06T17:00:10.344Z,1.82
2018-09-06T17:02:38.750Z,1.82
2018-09-06T17:05:07.228Z,1.80
2018-09-06T17:07:35.670Z,1.60
2018-09-06T17:10:04.439Z,1.70
2018-09-06T17:12:32.932Z,1.80
2018-09-06T17:15:01.381Z,1.70
2018-09-06T17:17:29.804Z,1.60
2018-09-06T17:19:58.255Z,1.50
2018-09-06T17:22:26.920Z,1.50
2018-09-06T17:24:55.348Z,1.45
2018-09-06T17:27:23.780Z,2.17
2018-09-06T17:29:52.264Z,1.60
2018-09-06T17:32:20.759Z,1.50
2018-09-06T17:34:49.160Z,1.50
2018-09-06T17:37:17.627Z,1.52
2018-09-06T17:39:46.095Z,1.50
2018-09-06T17:42:14.593Z,1.40
2018-09-06T17:44:43.084Z,1.50
2018-09-06T17:47:11.611Z,1.40
2018-09-06T17:49:40.095Z,1.30
2018-09-06T17:52:08.591Z,1.40
2018-09-06T17:54:37.090Z,1.30
2018-09-06T17:57:05.608Z,1.32
2018-09-06T17:59:34.125Z,2.37
2018-09-06T18:02:02.681Z,1.30
2018-09-06T18:04:31.158Z,1.27
2018-09-06T18:06:59.628Z,1.30
2018-09-06T18:09:28.215Z,1.30
2018-09-06T18:11:56.799Z,1.30
2018-09-06T18:14:26.276Z,1.32
2018-09-06T18:16:54.800Z,1.60
2018-09-06T18:19:23.305Z,1.30
2018-09-06T18:21:51.866Z,1.20
2018-09-06T18:24:20.450Z,1.40
2018-09-06T18:26:48.934Z,1.27
2018-09-06T18:29:17.500Z,1.60
2018-09-06T18:31:46.049Z,1.90
2018-09-06T18:34:14.531Z,1.35
2018-09-06T18:36:43.019Z,1.37
2018-09-06T18:39:11.484Z,1.30
2018-09-06T18:41:39.988Z,1.40
2018-09-06T18:44:08.543Z,1.60
2018-09-06T18:46:36.978Z,1.30
2018-09-06T18:49:05.575Z,3.90
2018-09-06T18:51:34.116Z,1.40
2018-09-06T18:54:02.626Z,1.40
2018-09-06T18:56:31.094Z,1.70
2018-09-06T18:58:59.592Z,1.90
2018-09-06T19:01:28.079Z,1.70
2018-09-06T19:03:56.540Z,1.60
2018-09-06T19:06:25.057Z,1.95
2018-09-06T19:08:53.526Z,1.70
2018-09-06T19:11:22.040Z,1.80
2018-09-06T19:13:50.502Z,1.60
2018-09-06T19:16:18.976Z,1.60
2018-09-06T19:18:47.526Z,2.10
2018-09-06T19:21:16.016Z,1.60
2018-09-06T19:23:44.494Z,1.70
2018-09-06T19:26:13.021Z,1.70
2018-09-06T19:28:41.482Z,1.87
2018-09-06T19:31:10.012Z,1.70
2018-09-06T19:33:38.534Z,1.80
2018-09-06T19:36:07.196Z,1.80
2018-09-06T19:38:35.648Z,1.65
2018-09-06T19:41:04.137Z,1.65
2018-09-06T19:43:32.643Z,1.70
2018-09-06T19:46:01.137Z,2.27
2018-09-06T19:48:29.662Z,1.75
2018-09-06T19:50:58.116Z,1.70
2018-09-06T19:53:26.638Z,1.70
2018-09-06T19:55:55.116Z,1.90
2018-09-06T19:58:23.654Z,2.27
2018-09-06T20:00:52.130Z,1.70
2018-09-06T20:03:20.627Z,2.02
2018-09-06T20:05:49.095Z,1.70
2018-09-06T20:08:17.639Z,1.70
2018-09-06T20:10:46.064Z,1.82
2018-09-06T20:13:14.585Z,1.92
2018-09-06T20:15:43.085Z,1.70
2018-09-06T20:18:11.576Z,2.00
2018-09-06T20:20:40.038Z,1.60
2018-09-06T20:23:08.540Z,1.90
2018-09-06T20:25:37.001Z,1.70
2018-09-06T20:28:05.641Z,1.70
2018-09-06T20:30:34.179Z,1.60
2018-09-06T20:33:02.930Z,1.60
2018-09-06T20:35:31.350Z,3.77
2018-09-06T20:37:59.780Z,1.52
2018-09-06T20:40:28.195Z,1.70
2018-09-06T20:42:56.630Z,1.60
2018-09-06T20:45:25.083Z,1.60
2018-09-06T20:47:53.549Z,1.60
2018-09-06T20:50:21.977Z,1.80
2018-09-06T20:52:50.463Z,1.90
2018-09-06T20:55:18.884Z,2.00
2018-09-06T20:57:47.313Z,1.67
2018-09-06T21:00:15.732Z,1.85
2018-09-06T21:02:44.151Z,1.77
2018-09-06T21:05:12.599Z,2.00
2018-09-06T21:07:41.047Z,1.72
2018-09-06T21:10:09.516Z,2.02
2018-09-06T21:12:37.934Z,1.75
2018-09-06T21:15:06.447Z,1.80
2018-09-06T21:17:34.908Z,1.70
2018-09-06T21:20:03.415Z,1.90
2018-09-06T21:22:31.833Z,2.05
2018-09-06T21:25:00.311Z,1.72
2018-09-06T21:27:28.801Z,1.80
2018-09-06T21:29:57.365Z,1.80
2018-09-06T21:32:25.762Z,1.70
2018-09-06T21:34:54.228Z,2.00
2018-09-06T21:37:22.708Z,1.90
2018-09-06T21:39:51.206Z,4.60
2018-09-06T21:42:19.651Z,1.80
2018-09-06T21:44:48.139Z,1.90
2018-09-06T21:47:16.582Z,1.70
2018-09-06T21:49:45.060Z,1.70
2018-09-06T21:52:13.508Z,1.75
2018-09-06T21:54:41.995Z,1.70
2018-09-06T21:57:10.467Z,1.70
2018-09-06T21:59:38.952Z,1.95
2018-09-06T22:02:10.708Z,2.00
2018-09-06T22:04:39.199Z,1.70
2018-09-06T22:07:07.693Z,1.70
2018-09-06T22:09:36.164Z,2.05
2018-09-06T22:12:04.723Z,1.70
2018-09-06T22:14:33.219Z,1.95
2018-09-06T22:17:01.779Z,2.05
2018-09-06T22:19:30.284Z,1.70
2018-09-06T22:21:58.774Z,1.90
2018-09-06T22:24:27.295Z,2.10
2018-09-06T22:26:55.879Z,1.85
2018-09-06T22:29:24.403Z,1.77
2018-09-06T22:31:52.895Z,1.80
2018-09-06T22:34:21.352Z,1.85
2018-09-06T22:36:49.882Z,1.80
2018-09-06T22:39:18.342Z,2.00
2018-09-06T22:41:46.840Z,1.80
2018-09-06T22:44:15.327Z,1.90
2018-09-06T22:46:43.891Z,1.90
2018-09-06T22:49:12.384Z,2.55
2018-09-06T22:51:40.879Z,1.80
2018-09-06T22:54:09.338Z,1.70
2018-09-06T22:56:37.815Z,1.80
2018-09-06T22:59:06.310Z,2.08
2018-09-06T23:01:34.814Z,1.90
2018-09-06T23:04:03.332Z,1.70
2018-09-06T23:06:31.970Z,1.80
2018-09-06T23:09:00.467Z,2.50
2018-09-06T23:11:28.940Z,1.90
2018-09-06T23:13:57.515Z,1.65
2018-09-06T23:16:26.022Z,1.70
2018-09-06T23:18:54.535Z,1.70
2018-09-06T23:21:22.990Z,1.90
2018-09-06T23:23:51.447Z,1.80
2018-09-06T23:26:19.938Z,1.90
2018-09-06T23:28:48.422Z,1.75
2018-09-06T23:31:16.916Z,2.15
2018-09-06T23:33:45.441Z,1.90
2018-09-06T23:36:13.942Z,2.27
2018-09-06T23:38:42.450Z,1.70
2018-09-06T23:41:10.928Z,1.80
2018-09-06T23:43:39.594Z,1.70
2018-09-06T23:46:08.137Z,1.80
2018-09-06T23:48:36.587Z,1.70
2018-09-06T23:51:05.115Z,1.75
2018-09-06T23:53:33.618Z,2.08
2018-09-06T23:56:02.075Z,1.67
2018-09-06T23:58:30.556Z,1.70
